Time;durP1;ratioP1;P1;durP2;ratioP2;P2;SDS_P1;SDS_P2;PMS_P1;PMS_P2;Temp;Humidity;BMP_temperature;BMP_pressure;BME280_temperature;BME280_humidity;BME280_pressure;Samples;Min_cycle;Max_cycle;Signal;HPM_P1;HPM_P2
2022/10/21 00:00:39;;;;;;;7.28;3.85;;;;;;;;;;1744708;82;21486;-58
2022/10/21 00:03:05;;;;;;;5.08;3.47;;;;;;;;;;1741058;82;21068;-58
2022/10/21 00:05:32;;;;;;;7.62;3.72;;;;;;;;;;1745112;82;21089;-58
2022/10/21 00:07:58;;;;;;;7.62;3.77;;;;;;;;;;1746270;82;21092;-58
2022/10/21 00:10:25;;;;;;;10.25;4.00;;;;;;;;;;1745051;82;21517;-57
2022/10/21 00:12:52;;;;;;;7.75;3.98;;;;;;;;;;1744843;81;21072;-57
2022/10/21 00:15:18;;;;;;;11.80;4.70;;;;;;;;;;1772229;80;21025;-57
2022/10/21 00:17:45;;;;;;;8.10;4.97;;;;;;;;;;1779701;80;21068;-59
2022/10/21 00:20:11;;;;;;;8.78;4.58;;;;;;;;;;1748036;82;21057;-59
2022/10/21 00:22:38;;;;;;;7.17;3.98;;;;;;;;;;1771278;80;21029;-57
2022/10/21 00:25:05;;;;;;;6.83;3.58;;;;;;;;;;1781119;80;21065;-57
2022/10/21 00:27:31;;;;;;;5.75;3.42;;;;;;;;;;1780582;80;21560;-57
2022/10/21 00:29:59;;;;;;;6.22;3.83;;;;;;;;;;1781628;80;21057;-57
2022/10/21 00:32:26;;;;;;;7.62;4.35;;;;;;;;;;1740075;82;21062;-57
2022/10/21 00:34:52;;;;;;;8.15;3.75;;;;;;;;;;1731747;82;21040;-59
2022/10/21 00:37:18;;;;;;;5.35;3.17;;;;;;;;;;1713056;83;21052;-58
2022/10/21 00:39:45;;;;;;;4.92;3.02;;;;;;;;;;1716981;83;21069;-58
2022/10/21 00:42:18;;;;;;;4.75;2.85;;;;;;;;;;1711748;83;21050;-58
2022/10/21 00:45:03;;;;;;;3.77;2.75;;;;;;;;;;1698463;83;21121;-57
2022/10/21 00:47:30;;;;;;;5.70;3.17;;;;;;;;;;1699958;84;21186;-57
2022/10/21 00:49:57;;;;;;;4.92;3.10;;;;;;;;;;1714598;83;21060;-58
2022/10/21 00:52:24;;;;;;;5.45;3.52;;;;;;;;;;1708413;83;21093;-57
2022/10/21 00:54:51;;;;;;;6.17;3.47;;;;;;;;;;1699266;84;21058;-57
2022/10/21 00:57:17;;;;;;;6.28;3.55;;;;;;;;;;1692176;83;21070;-58
2022/10/21 00:59:44;;;;;;;6.22;3.50;;;;;;;;;;1697592;83;22043;-58
2022/10/21 01:02:11;;;;;;;6.22;3.58;;;;;;;;;;1674999;84;21109;-58
2022/10/21 01:04:39;;;;;;;5.30;3.00;;;;;;;;;;1694641;84;21061;-58
2022/10/21 01:07:05;;;;;;;4.58;2.95;;;;;;;;;;1703956;84;21033;-58
2022/10/21 01:09:31;;;;;;;3.87;2.92;;;;;;;;;;1694067;83;21062;-58
2022/10/21 01:11:57;;;;;;;4.17;2.90;;;;;;;;;;1683273;83;21605;-58
2022/10/21 01:14:29;;;;;;;3.58;2.62;;;;;;;;;;1683722;83;21665;-57
2022/10/21 01:16:57;;;;;;;5.25;3.05;;;;;;;;;;1710778;83;21072;-58
2022/10/21 01:19:42;;;;;;;4.15;2.90;;;;;;;;;;1715437;83;21057;-58
2022/10/21 01:22:16;;;;;;;4.72;2.90;;;;;;;;;;1715374;84;21017;-58
2022/10/21 01:24:42;;;;;;;;;;;;;;;;;;1684832;84;21585;-59
2022/10/21 01:27:12;;;;;;;4.80;3.25;;;;;;;;;;1696202;84;20267;-58
2022/10/21 01:29:55;;;;;;;5.83;3.67;;;;;;;;;;1687765;83;21510;-59
2022/10/21 01:32:29;;;;;;;6.58;3.37;;;;;;;;;;1745948;81;21153;-58
2022/10/21 01:34:55;;;;;;;;;;;;;;;;;;1732176;81;21780;-58
2022/10/21 01:37:35;;;;;;;6.33;3.33;;;;;;;;;;1748597;81;20164;-59
2022/10/21 01:40:05;;;;;;;5.33;3.35;;;;;;;;;;1738887;82;21218;-57
2022/10/21 01:42:33;;;;;;;5.15;3.17;;;;;;;;;;1760389;80;21100;-58
2022/10/21 01:45:01;;;;;;;4.15;2.95;;;;;;;;;;1772292;81;21046;-57
2022/10/21 01:47:29;;;;;;;5.20;2.83;;;;;;;;;;1739212;82;21576;-59
2022/10/21 01:49:57;;;;;;;4.37;2.80;;;;;;;;;;1739730;82;21521;-59
2022/10/21 01:52:24;;;;;;;5.30;2.80;;;;;;;;;;1769858;80;21581;-58
2022/10/21 01:57:31;;;;;;;7.05;3.05;;;;;;;;;;1788036;79;23093;-59
2022/10/21 01:59:57;;;;;;;3.58;2.77;;;;;;;;;;1764200;81;21558;-59
2022/10/21 02:05:15;;;;;;;4.20;2.65;;;;;;;;;;1654437;80;76994;-58
2022/10/21 02:07:42;;;;;;;4.40;2.90;;;;;;;;;;1638948;85;21086;-58
2022/10/21 02:10:09;;;;;;;4.92;3.10;;;;;;;;;;1670116;85;21597;-57
2022/10/21 02:12:36;;;;;;;6.37;2.90;;;;;;;;;;1670474;85;21039;-58
2022/10/21 02:15:03;;;;;;;6.58;3.15;;;;;;;;;;1687345;85;21093;-58
2022/10/21 02:17:30;;;;;;;6.47;3.47;;;;;;;;;;1661686;85;21074;-57
2022/10/21 02:19:57;;;;;;;6.65;3.10;;;;;;;;;;1663977;85;21105;-57
2022/10/21 02:22:23;;;;;;;6.67;3.50;;;;;;;;;;1659720;85;21097;-58
2022/10/21 02:24:51;;;;;;;6.00;2.95;;;;;;;;;;1686918;85;21122;-59
2022/10/21 02:27:17;;;;;;;6.70;3.40;;;;;;;;;;1686943;85;21042;-59
2022/10/21 02:29:44;;;;;;;6.08;3.10;;;;;;;;;;1687215;85;21058;-58
2022/10/21 02:32:12;;;;;;;4.33;2.60;;;;;;;;;;1652347;85;21035;-58
2022/10/21 02:34:49;;;;;;;5.05;3.20;;;;;;;;;;1677821;85;21086;-59
2022/10/21 02:37:32;;;;;;;5.22;2.98;;;;;;;;;;1644266;85;21090;-60
2022/10/21 02:40:00;;;;;;;7.28;2.75;;;;;;;;;;1662279;85;21566;-57
2022/10/21 02:42:28;;;;;;;3.50;2.77;;;;;;;;;;1683741;85;21071;-57
2022/10/21 02:44:55;;;;;;;5.17;3.05;;;;;;;;;;1672465;85;21039;-58
2022/10/21 02:47:22;;;;;;;5.95;3.00;;;;;;;;;;1654457;87;21512;-58
2022/10/21 02:49:49;;;;;;;5.17;3.08;;;;;;;;;;1654826;86;21069;-58
2022/10/21 02:52:15;;;;;;;4.65;3.25;;;;;;;;;;1655112;86;21100;-58
2022/10/21 02:54:41;;;;;;;5.30;3.60;;;;;;;;;;1655230;85;21087;-58
2022/10/21 02:57:08;;;;;;;6.00;3.77;;;;;;;;;;1682009;85;21121;-57
2022/10/21 02:59:35;;;;;;;7.35;3.87;;;;;;;;;;1681243;85;21071;-61
2022/10/21 03:02:01;;;;;;;6.42;3.90;;;;;;;;;;1639003;86;21062;-60
2022/10/21 03:04:28;;;;;;;8.05;3.90;;;;;;;;;;1627340;85;22472;-60
2022/10/21 03:06:56;;;;;;;5.83;4.15;;;;;;;;;;1658564;86;21037;-60
2022/10/21 03:09:22;;;;;;;7.70;3.77;;;;;;;;;;1659548;85;21036;-60
2022/10/21 03:11:50;;;;;;;5.95;3.45;;;;;;;;;;1673869;85;21059;-59
2022/10/21 03:14:16;;;;;;;9.80;4.42;;;;;;;;;;1686823;85;21518;-58
2022/10/21 03:16:42;;;;;;;6.55;4.00;;;;;;;;;;1678145;85;21058;-57
2022/10/21 03:19:09;;;;;;;5.25;3.70;;;;;;;;;;1649517;85;21144;-59
2022/10/21 03:21:35;;;;;;;9.85;4.75;;;;;;;;;;1628251;88;21098;-58
2022/10/21 03:24:02;;;;;;;10.18;5.20;;;;;;;;;;1647155;85;21065;-58
2022/10/21 03:26:28;;;;;;;8.98;4.62;;;;;;;;;;1666063;85;21624;-58
2022/10/21 03:28:54;;;;;;;10.65;4.87;;;;;;;;;;1687457;85;21070;-58
2022/10/21 03:31:20;;;;;;;8.90;5.25;;;;;;;;;;1682215;85;21025;-58
2022/10/21 03:33:47;;;;;;;10.00;5.17;;;;;;;;;;1679012;85;21086;-58
2022/10/21 03:36:13;;;;;;;9.95;5.70;;;;;;;;;;1678286;85;21092;-58
2022/10/21 03:38:39;;;;;;;10.50;5.67;;;;;;;;;;1676584;85;22132;-59
2022/10/21 03:41:05;;;;;;;11.03;6.40;;;;;;;;;;1657387;85;21050;-59
2022/10/21 03:43:33;;;;;;;7.97;5.05;;;;;;;;;;1675288;85;21031;-58
2022/10/21 03:45:59;;;;;;;7.45;4.85;;;;;;;;;;1687421;85;21062;-59
2022/10/21 03:48:25;;;;;;;7.22;4.37;;;;;;;;;;1684970;85;21049;-59
2022/10/21 03:50:51;;;;;;;8.35;4.78;;;;;;;;;;1678823;85;21039;-59
2022/10/21 03:53:17;;;;;;;8.08;4.65;;;;;;;;;;1687513;85;21087;-59
2022/10/21 03:55:44;;;;;;;8.68;5.00;;;;;;;;;;1666714;85;21623;-59
2022/10/21 03:58:10;;;;;;;8.50;5.17;;;;;;;;;;1654763;87;21497;-59
2022/10/21 04:00:36;;;;;;;11.88;8.05;;;;;;;;;;1659776;85;21050;-60
2022/10/21 04:03:03;;;;;;;12.45;9.65;;;;;;;;;;1687778;84;21121;-59
2022/10/21 04:05:29;;;;;;;15.10;12.23;;;;;;;;;;1687426;85;21521;-59
2022/10/21 04:07:56;;;;;;;19.75;15.60;;;;;;;;;;1689831;84;21069;-59
2022/10/21 04:10:22;;;;;;;20.12;15.03;;;;;;;;;;1668638;86;21048;-60
2022/10/21 04:12:48;;;;;;;20.68;14.55;;;;;;;;;;1667556;85;21071;-59
2022/10/21 04:15:14;;;;;;;20.52;14.40;;;;;;;;;;1655434;86;21619;-59
2022/10/21 04:17:40;;;;;;;21.73;14.33;;;;;;;;;;1662324;86;21048;-58
2022/10/21 04:20:09;;;;;;;17.73;12.58;;;;;;;;;;1653712;85;21119;-59
2022/10/21 04:22:35;;;;;;;20.70;15.00;;;;;;;;;;1662517;86;21012;-60
2022/10/21 04:25:01;;;;;;;21.50;15.15;;;;;;;;;;1662141;85;21093;-58
2022/10/21 04:27:28;;;;;;;26.23;17.40;;;;;;;;;;1662149;86;21067;-59
2022/10/21 04:29:54;;;;;;;26.73;15.85;;;;;;;;;;1679527;85;21107;-58
2022/10/21 04:32:21;;;;;;;29.50;15.35;;;;;;;;;;1666068;85;21022;-58
2022/10/21 04:34:47;;;;;;;26.35;14.63;;;;;;;;;;1669902;85;21038;-58
2022/10/21 04:37:13;;;;;;;22.42;13.78;;;;;;;;;;1668031;85;21100;-58
2022/10/21 04:39:40;;;;;;;23.47;14.03;;;;;;;;;;1644724;86;21144;-60
2022/10/21 04:42:07;;;;;;;19.50;11.38;;;;;;;;;;1643330;87;21056;-58
2022/10/21 04:44:33;;;;;;;18.32;11.60;;;;;;;;;;1642830;86;21176;-59
2022/10/21 04:47:00;;;;;;;18.55;9.43;;;;;;;;;;1653957;85;21057;-58
2022/10/21 04:49:26;;;;;;;14.63;7.87;;;;;;;;;;1654468;85;21013;-59
2022/10/21 04:51:52;;;;;;;13.70;8.40;;;;;;;;;;1688356;85;21090;-58
2022/10/21 04:54:18;;;;;;;12.18;8.58;;;;;;;;;;1685447;85;21054;-59
2022/10/21 04:56:44;;;;;;;10.60;7.28;;;;;;;;;;1685219;85;21083;-58
2022/10/21 04:59:12;;;;;;;12.35;6.58;;;;;;;;;;1686886;85;21073;-59
2022/10/21 05:01:38;;;;;;;14.95;6.55;;;;;;;;;;1659661;85;21128;-58
2022/10/21 05:04:05;;;;;;;11.93;6.92;;;;;;;;;;1663198;85;21081;-58
2022/10/21 05:06:33;;;;;;;14.10;8.13;;;;;;;;;;1659433;85;21114;-59
2022/10/21 05:08:59;;;;;;;14.65;7.83;;;;;;;;;;1644449;85;21072;-59
2022/10/21 05:11:25;;;;;;;21.35;10.48;;;;;;;;;;1637873;87;21017;-59
2022/10/21 05:13:51;;;;;;;21.57;10.28;;;;;;;;;;1638293;87;22225;-59
2022/10/21 05:16:19;;;;;;;23.50;10.20;;;;;;;;;;1664984;85;21043;-59
2022/10/21 05:18:45;;;;;;;13.95;7.95;;;;;;;;;;1665127;85;21019;-59
2022/10/21 05:21:12;;;;;;;13.30;6.95;;;;;;;;;;1665004;86;21212;-58
2022/10/21 05:23:38;;;;;;;10.93;5.75;;;;;;;;;;1664761;85;21082;-58
2022/10/21 05:26:04;;;;;;;8.65;4.53;;;;;;;;;;1662369;85;21113;-58
2022/10/21 05:28:30;;;;;;;6.55;4.17;;;;;;;;;;1662575;85;21071;-58
2022/10/21 05:30:57;;;;;;;7.87;3.87;;;;;;;;;;1642099;85;21284;-58
2022/10/21 05:33:24;;;;;;;6.95;3.77;;;;;;;;;;1635500;88;21123;-58
2022/10/21 05:35:54;;;;;;;7.80;3.90;;;;;;;;;;1676173;85;21110;-58
2022/10/21 05:38:20;;;;;;;9.28;5.15;;;;;;;;;;1679638;85;21036;-59
2022/10/21 05:40:48;;;;;;;8.73;5.10;;;;;;;;;;1627442;87;21077;-60
2022/10/21 05:43:14;;;;;;;9.40;4.97;;;;;;;;;;1664748;85;21080;-60
2022/10/21 05:45:40;;;;;;;9.85;5.40;;;;;;;;;;1675406;85;21526;-60
2022/10/21 05:48:06;;;;;;;11.35;6.05;;;;;;;;;;1670452;85;21518;-58
2022/10/21 05:50:33;;;;;;;10.60;5.60;;;;;;;;;;1670347;85;21037;-58
2022/10/21 05:52:59;;;;;;;9.50;5.40;;;;;;;;;;1661737;85;21591;-60
2022/10/21 05:55:26;;;;;;;8.90;5.08;;;;;;;;;;1658924;85;21053;-57
2022/10/21 05:57:52;;;;;;;7.78;4.53;;;;;;;;;;1671494;85;21069;-59
2022/10/21 06:00:20;;;;;;;6.62;4.12;;;;;;;;;;1645299;86;21057;-58
2022/10/21 06:02:46;;;;;;;5.75;3.77;;;;;;;;;;1639116;86;21133;-58
2022/10/21 06:05:12;;;;;;;6.58;3.90;;;;;;;;;;1665849;85;21140;-60
2022/10/21 06:07:39;;;;;;;5.72;4.40;;;;;;;;;;1657724;85;21025;-59
2022/10/21 06:10:06;;;;;;;7.85;4.50;;;;;;;;;;1622305;88;21038;-59
2022/10/21 06:12:33;;;;;;;6.47;4.28;;;;;;;;;;1659189;85;21046;-58
2022/10/21 06:15:00;;;;;;;7.85;4.25;;;;;;;;;;1666945;85;21130;-59
2022/10/21 06:17:27;;;;;;;11.03;6.28;;;;;;;;;;1668339;85;22270;-59
2022/10/21 06:19:54;;;;;;;8.60;5.35;;;;;;;;;;1664831;85;21058;-59
2022/10/21 06:22:20;;;;;;;9.40;4.87;;;;;;;;;;1664399;85;21051;-59
2022/10/21 06:24:48;;;;;;;8.43;4.72;;;;;;;;;;1679883;85;21100;-58
2022/10/21 06:27:14;;;;;;;8.68;5.08;;;;;;;;;;1655598;85;21085;-58
2022/10/21 06:29:41;;;;;;;9.78;5.87;;;;;;;;;;1664812;85;21082;-58
2022/10/21 06:32:07;;;;;;;9.48;5.33;;;;;;;;;;1671022;85;21021;-59
2022/10/21 06:34:33;;;;;;;9.90;5.70;;;;;;;;;;1664103;85;22154;-59
2022/10/21 06:36:59;;;;;;;9.73;6.05;;;;;;;;;;1655521;86;21025;-59
2022/10/21 06:39:26;;;;;;;9.80;6.42;;;;;;;;;;1681246;85;21093;-59
2022/10/21 06:41:52;;;;;;;10.78;6.70;;;;;;;;;;1675248;85;21075;-59
2022/10/21 06:44:21;;;;;;;10.98;6.87;;;;;;;;;;1617980;88;21119;-59
2022/10/21 06:46:46;;;;;;;10.13;6.92;;;;;;;;;;1626461;87;21057;-59
2022/10/21 06:49:12;;;;;;;12.30;6.47;;;;;;;;;;1627576;88;21020;-59
2022/10/21 06:51:39;;;;;;;11.53;7.00;;;;;;;;;;1604795;88;21113;-59
2022/10/21 06:54:06;;;;;;;12.15;6.55;;;;;;;;;;1653109;85;21124;-59
2022/10/21 06:56:32;;;;;;;13.32;7.72;;;;;;;;;;1656937;85;21118;-58
2022/10/21 06:58:59;;;;;;;11.80;7.72;;;;;;;;;;1686943;85;21856;-58
2022/10/21 07:01:26;;;;;;;10.63;6.70;;;;;;;;;;1669896;85;21100;-58
2022/10/21 07:03:52;;;;;;;15.10;7.40;;;;;;;;;;1687466;83;21159;-58
2022/10/21 07:06:18;;;;;;;12.37;6.47;;;;;;;;;;1666669;85;21612;-58
2022/10/21 07:08:45;;;;;;;10.18;6.08;;;;;;;;;;1658277;85;21123;-58
2022/10/21 07:11:12;;;;;;;14.35;6.90;;;;;;;;;;1656360;85;21605;-58
2022/10/21 07:13:38;;;;;;;17.07;8.25;;;;;;;;;;1654289;85;21095;-59
2022/10/21 07:16:05;;;;;;;12.20;7.12;;;;;;;;;;1654587;85;21068;-59
2022/10/21 07:18:33;;;;;;;11.80;6.35;;;;;;;;;;1652725;85;21008;-59
2022/10/21 07:21:03;;;;;;;11.95;7.08;;;;;;;;;;1654914;85;21104;-59
2022/10/21 07:23:30;;;;;;;12.20;7.08;;;;;;;;;;1657139;85;21072;-59
2022/10/21 07:25:56;;;;;;;10.48;6.87;;;;;;;;;;1653878;85;21049;-59
2022/10/21 07:28:22;;;;;;;10.63;6.90;;;;;;;;;;1654934;85;21063;-60
2022/10/21 07:30:49;;;;;;;11.78;5.87;;;;;;;;;;1654450;85;21132;-60
2022/10/21 07:33:15;;;;;;;8.10;5.80;;;;;;;;;;1653806;85;21060;-60
2022/10/21 07:35:42;;;;;;;7.30;4.70;;;;;;;;;;1652605;85;21064;-60
2022/10/21 07:38:08;;;;;;;8.55;5.05;;;;;;;;;;1652699;85;22245;-58
2022/10/21 07:40:38;;;;;;;8.13;4.60;;;;;;;;;;1660231;85;21567;-59
2022/10/21 07:43:04;;;;;;;8.90;4.87;;;;;;;;;;1657527;85;21091;-58
2022/10/21 07:45:30;;;;;;;7.95;5.12;;;;;;;;;;1651040;85;21104;-59
2022/10/21 07:47:57;;;;;;;7.22;4.62;;;;;;;;;;1677283;85;21514;-58
2022/10/21 07:50:23;;;;;;;6.28;4.33;;;;;;;;;;1652801;85;21073;-59
2022/10/21 07:52:49;;;;;;;8.33;4.35;;;;;;;;;;1661126;85;21063;-60
2022/10/21 07:55:15;;;;;;;6.78;4.83;;;;;;;;;;1652572;85;21063;-59
2022/10/21 07:57:43;;;;;;;8.10;4.33;;;;;;;;;;1651938;85;21092;-59
2022/10/21 08:00:10;;;;;;;6.62;4.47;;;;;;;;;;1654900;85;21021;-59
2022/10/21 08:02:40;;;;;;;6.60;3.98;;;;;;;;;;1650660;85;21169;-59
2022/10/21 08:05:06;;;;;;;8.35;4.58;;;;;;;;;;1619841;87;21584;-60
2022/10/21 08:07:33;;;;;;;7.50;4.70;;;;;;;;;;1595456;89;21098;-59
2022/10/21 08:10:00;;;;;;;9.55;5.60;;;;;;;;;;1608556;88;21125;-58
2022/10/21 08:12:26;;;;;;;9.73;5.95;;;;;;;;;;1602658;88;21084;-58
2022/10/21 08:14:52;;;;;;;8.53;6.40;;;;;;;;;;1603244;88;21120;-58
2022/10/21 08:17:20;;;;;;;11.18;6.90;;;;;;;;;;1618786;87;21544;-59
2022/10/21 08:19:47;;;;;;;14.07;7.10;;;;;;;;;;1644869;85;21075;-59
2022/10/21 08:22:14;;;;;;;11.00;6.90;;;;;;;;;;1606380;88;21030;-59
2022/10/21 08:24:40;;;;;;;9.33;6.28;;;;;;;;;;1588921;89;21042;-59
2022/10/21 08:27:06;;;;;;;9.45;5.53;;;;;;;;;;1589215;88;21045;-59
2022/10/21 08:29:32;;;;;;;9.15;5.65;;;;;;;;;;1602332;88;21134;-58
2022/10/21 08:31:58;;;;;;;7.70;5.35;;;;;;;;;;1610802;88;21083;-60
2022/10/21 08:34:25;;;;;;;10.05;5.37;;;;;;;;;;1599925;88;22228;-59
2022/10/21 08:36:52;;;;;;;8.25;5.17;;;;;;;;;;1598999;89;21081;-58
2022/10/21 08:39:18;;;;;;;9.95;4.97;;;;;;;;;;1600398;88;21069;-59
2022/10/21 08:41:46;;;;;;;9.28;5.03;;;;;;;;;;1613673;88;21113;-59
2022/10/21 08:44:20;;;;;;;11.45;5.10;;;;;;;;;;1617265;88;21068;-59
2022/10/21 08:46:48;;;;;;;10.75;6.35;;;;;;;;;;1601126;88;21068;-58
2022/10/21 08:49:19;;;;;;;7.22;5.00;;;;;;;;;;1651709;85;21630;-59
2022/10/21 08:51:48;;;;;;;9.90;5.67;;;;;;;;;;1639589;85;21111;-59
2022/10/21 08:54:25;;;;;;;8.68;5.12;;;;;;;;;;1649342;85;21073;-59
2022/10/21 08:56:52;;;;;;;9.58;5.30;;;;;;;;;;1644771;85;21028;-59
2022/10/21 08:59:20;;;;;;;7.22;4.85;;;;;;;;;;1657010;86;21357;-59
2022/10/21 09:02:06;;;;;;;9.25;4.40;;;;;;;;;;1652772;85;21132;-60
2022/10/21 09:04:34;;;;;;;8.53;4.90;;;;;;;;;;1656469;86;21113;-59
2022/10/21 09:07:06;;;;;;;7.87;4.30;;;;;;;;;;1649586;86;21132;-59
2022/10/21 09:09:40;;;;;;;11.90;5.25;;;;;;;;;;1658698;85;21116;-58
2022/10/21 09:12:08;;;;;;;6.97;4.62;;;;;;;;;;1650459;85;21115;-58
2022/10/21 09:14:46;;;;;;;6.40;4.47;;;;;;;;;;1656497;86;20997;-57
2022/10/21 09:17:28;;;;;;;9.10;5.80;;;;;;;;;;1655653;85;21553;-59
2022/10/21 09:19:56;;;;;;;8.15;5.83;;;;;;;;;;1654454;86;21080;-59
2022/10/21 09:22:38;;;;;;;6.97;4.97;;;;;;;;;;1651439;85;21045;-59
2022/10/21 09:25:08;;;;;;;7.45;4.42;;;;;;;;;;1618551;87;21621;-59
2022/10/21 09:27:34;;;;;;;7.62;5.03;;;;;;;;;;1596500;89;21129;-61
2022/10/21 09:30:01;;;;;;;9.48;5.53;;;;;;;;;;1660733;86;21055;-59
2022/10/21 09:32:31;;;;;;;9.48;5.35;;;;;;;;;;1656012;85;21093;-59
2022/10/21 09:35:18;;;;;;;7.12;5.00;;;;;;;;;;1656631;85;21009;-59
2022/10/21 09:37:46;;;;;;;6.50;4.40;;;;;;;;;;1650270;86;21565;-61
2022/10/21 09:40:16;;;;;;;8.78;4.90;;;;;;;;;;1660435;85;21109;-59
2022/10/21 09:42:42;;;;;;;8.35;5.00;;;;;;;;;;1654825;86;21096;-60
2022/10/21 09:45:11;;;;;;;8.28;4.72;;;;;;;;;;1653697;86;21089;-60
2022/10/21 09:47:37;;;;;;;8.73;4.05;;;;;;;;;;1655682;85;21077;-59
2022/10/21 09:50:04;;;;;;;6.05;4.22;;;;;;;;;;1659489;86;21048;-59
2022/10/21 09:52:30;;;;;;;6.67;4.67;;;;;;;;;;1659793;86;21084;-59
2022/10/21 09:54:57;;;;;;;6.90;4.35;;;;;;;;;;1652899;86;21078;-59
2022/10/21 09:57:35;;;;;;;8.30;4.95;;;;;;;;;;1651617;86;21535;-59
2022/10/21 10:00:02;;;;;;;9.08;5.53;;;;;;;;;;1654600;85;21512;-60
2022/10/21 10:02:31;;;;;;;8.28;5.03;;;;;;;;;;1654137;85;21104;-60
2022/10/21 10:04:57;;;;;;;10.48;5.72;;;;;;;;;;1649713;85;21069;-59
2022/10/21 10:07:36;;;;;;;10.23;5.80;;;;;;;;;;1664795;85;21084;-59
2022/10/21 10:10:02;;;;;;;9.20;5.50;;;;;;;;;;1656036;85;21061;-59
2022/10/21 10:12:29;;;;;;;8.00;5.87;;;;;;;;;;1658886;85;21083;-60
2022/10/21 10:14:55;;;;;;;9.55;5.83;;;;;;;;;;1663060;85;21662;-60
2022/10/21 10:17:30;;;;;;;11.65;6.00;;;;;;;;;;1657320;85;21035;-59
2022/10/21 10:20:04;;;;;;;7.37;5.08;;;;;;;;;;1665486;85;21079;-59
2022/10/21 10:22:34;;;;;;;7.28;4.97;;;;;;;;;;1664165;85;21547;-59
2022/10/21 10:25:16;;;;;;;8.80;5.28;;;;;;;;;;1670126;85;21053;-59
2022/10/21 10:27:53;;;;;;;6.65;4.40;;;;;;;;;;1652321;85;21116;-58
2022/10/21 10:30:20;;;;;;;6.87;4.35;;;;;;;;;;1664763;85;21089;-59
2022/10/21 10:32:46;;;;;;;9.38;4.90;;;;;;;;;;1661793;85;21100;-58
2022/10/21 10:35:17;;;;;;;7.87;4.58;;;;;;;;;;1667780;85;21536;-58
2022/10/21 10:37:45;;;;;;;6.90;3.90;;;;;;;;;;1664550;85;21089;-60
2022/10/21 10:40:13;;;;;;;6.45;4.37;;;;;;;;;;1666718;85;21049;-59
2022/10/21 10:42:41;;;;;;;7.60;4.08;;;;;;;;;;1661823;85;21567;-60
2022/10/21 10:45:12;;;;;;;6.53;3.80;;;;;;;;;;1665651;85;21109;-60
2022/10/21 10:47:44;;;;;;;6.33;3.67;;;;;;;;;;1660673;85;21575;-59
2022/10/21 10:50:29;;;;;;;6.50;3.87;;;;;;;;;;1660885;85;21555;-59
2022/10/21 10:53:15;;;;;;;8.08;3.95;;;;;;;;;;1661450;85;21021;-58
2022/10/21 10:55:42;;;;;;;9.15;5.05;;;;;;;;;;1658085;85;21024;-59
2022/10/21 10:58:08;;;;;;;8.38;4.97;;;;;;;;;;1661240;85;21057;-59
2022/10/21 11:00:36;;;;;;;8.68;5.25;;;;;;;;;;1658810;85;21064;-60
2022/10/21 11:03:04;;;;;;;7.87;4.95;;;;;;;;;;1659493;85;21053;-61
2022/10/21 11:05:38;;;;;;;9.48;5.42;;;;;;;;;;1667525;85;21096;-60
2022/10/21 11:08:06;;;;;;;6.42;4.37;;;;;;;;;;1660990;85;21080;-59
2022/10/21 11:10:52;;;;;;;6.00;4.20;;;;;;;;;;1658331;85;21181;-58
2022/10/21 11:13:19;;;;;;;7.72;4.10;;;;;;;;;;1659852;85;21386;-59
2022/10/21 11:15:56;;;;;;;6.65;3.62;;;;;;;;;;1661067;85;21104;-59
2022/10/21 11:18:25;;;;;;;7.20;3.37;;;;;;;;;;1660996;85;21127;-58
2022/10/21 11:21:10;;;;;;;4.72;3.30;;;;;;;;;;1663872;85;21520;-58
2022/10/21 11:23:47;;;;;;;5.17;3.15;;;;;;;;;;1660313;85;21560;-58
2022/10/21 11:26:18;;;;;;;4.85;3.30;;;;;;;;;;1663272;85;21080;-59
2022/10/21 11:28:53;;;;;;;6.87;3.55;;;;;;;;;;1660632;85;21076;-59
2022/10/21 11:31:24;;;;;;;5.72;3.17;;;;;;;;;;1662438;85;21120;-59
2022/10/21 11:34:02;;;;;;;6.92;3.20;;;;;;;;;;1627028;85;21064;-59
2022/10/21 11:36:30;;;;;;;4.92;2.90;;;;;;;;;;1656783;85;21072;-58
2022/10/21 11:39:15;;;;;;;4.30;2.65;;;;;;;;;;1667632;85;21021;-62
2022/10/21 11:41:47;;;;;;;4.22;2.05;;;;;;;;;;1662556;85;21596;-68
2022/10/21 11:44:15;;;;;;;3.08;2.12;;;;;;;;;;1659663;85;21092;-68
2022/10/21 11:46:53;;;;;;;3.70;2.12;;;;;;;;;;1659505;85;21751;-68
2022/10/21 11:49:27;;;;;;;2.90;1.92;;;;;;;;;;1660330;85;22119;-68
2022/10/21 11:51:58;;;;;;;2.67;2.05;;;;;;;;;;1661256;85;21060;-68
2022/10/21 11:54:32;;;;;;;3.60;2.10;;;;;;;;;;1664307;85;21045;-68
2022/10/21 11:57:15;;;;;;;2.80;1.95;;;;;;;;;;1656478;85;21077;-68
2022/10/21 11:59:44;;;;;;;3.27;1.80;;;;;;;;;;1659973;85;21037;-68
2022/10/21 12:02:12;;;;;;;2.83;1.77;;;;;;;;;;1666412;83;21179;-69
2022/10/21 12:04:46;;;;;;;4.47;3.55;;;;;;;;;;1662522;85;21073;-68
2022/10/21 12:07:23;;;;;;;3.17;2.17;;;;;;;;;;1667860;84;21584;-67
2022/10/21 12:09:56;;;;;;;3.25;2.40;;;;;;;;;;1613658;88;21119;-69
2022/10/21 12:12:24;;;;;;;2.85;1.90;;;;;;;;;;1637046;85;21096;-69
2022/10/21 12:14:54;;;;;;;4.00;2.22;;;;;;;;;;1659884;85;21017;-58
2022/10/21 12:17:21;;;;;;;2.98;2.00;;;;;;;;;;1654476;85;22547;-59
2022/10/21 12:19:53;;;;;;;2.47;1.90;;;;;;;;;;1654542;85;21144;-60
2022/10/21 12:22:19;;;;;;;2.75;2.02;;;;;;;;;;1654751;85;21061;-60
2022/10/21 12:24:51;;;;;;;2.67;2.20;;;;;;;;;;1649722;85;21080;-60
2022/10/21 12:27:19;;;;;;;4.72;2.33;;;;;;;;;;1652826;85;21080;-60
2022/10/21 12:29:53;;;;;;;4.33;2.50;;;;;;;;;;1653555;87;21114;-58
2022/10/21 12:32:37;;;;;;;3.08;2.02;;;;;;;;;;1649828;85;21060;-60
2022/10/21 12:35:03;;;;;;;4.80;2.30;;;;;;;;;;1671880;84;21562;-59
2022/10/21 12:37:42;;;;;;;3.02;1.95;;;;;;;;;;1671884;85;21025;-59
2022/10/21 12:40:10;;;;;;;2.55;1.80;;;;;;;;;;1649636;85;21563;-60
2022/10/21 12:42:39;;;;;;;2.95;2.17;;;;;;;;;;1651216;85;21145;-61
2022/10/21 12:45:08;;;;;;;3.45;2.20;;;;;;;;;;1684508;85;21108;-60
2022/10/21 12:47:35;;;;;;;3.02;2.30;;;;;;;;;;1653507;85;21049;-60
2022/10/21 12:50:03;;;;;;;2.47;2.00;;;;;;;;;;1651453;85;21136;-60
2022/10/21 12:52:29;;;;;;;3.42;1.90;;;;;;;;;;1647772;85;21037;-60
2022/10/21 12:54:57;;;;;;;2.75;1.80;;;;;;;;;;1671453;84;21060;-61
2022/10/21 12:57:28;;;;;;;2.75;1.72;;;;;;;;;;1666848;84;21102;-59
2022/10/21 13:00:12;;;;;;;2.47;1.77;;;;;;;;;;1654256;85;21489;-60
2022/10/21 13:02:59;;;;;;;2.12;1.45;;;;;;;;;;1675035;85;21016;-59
2022/10/21 13:05:39;;;;;;;3.02;1.60;;;;;;;;;;1663884;85;21559;-59
2022/10/21 13:08:21;;;;;;;3.02;1.47;;;;;;;;;;1660193;85;21116;-58
2022/10/21 13:11:04;;;;;;;3.90;2.33;;;;;;;;;;1639240;86;21044;-60
2022/10/21 13:13:41;;;;;;;4.20;2.60;;;;;;;;;;1643734;86;21077;-60
2022/10/21 13:16:20;;;;;;;2.92;2.08;;;;;;;;;;1662468;85;21599;-58
2022/10/21 13:18:59;;;;;;;3.17;1.95;;;;;;;;;;1668775;85;20998;-60
2022/10/21 13:21:30;;;;;;;3.77;2.00;;;;;;;;;;1661263;85;21045;-59
2022/10/21 13:23:59;;;;;;;3.33;2.10;;;;;;;;;;1659295;86;21057;-59
2022/10/21 13:26:25;;;;;;;3.70;2.12;;;;;;;;;;1663794;86;21499;-59
2022/10/21 13:29:02;;;;;;;3.45;2.02;;;;;;;;;;1663671;85;20997;-60
2022/10/21 13:31:29;;;;;;;4.33;2.50;;;;;;;;;;1667555;85;21095;-60
2022/10/21 13:33:55;;;;;;;4.33;2.30;;;;;;;;;;1672917;85;20997;-60
2022/10/21 13:36:31;;;;;;;4.22;2.35;;;;;;;;;;1665744;85;21022;-59
2022/10/21 13:38:54;;;;;;;3.30;1.90;;;;;;;;;;1663231;84;21104;-59
2022/10/21 13:41:22;;;;;;;4.17;2.05;;;;;;;;;;1662211;86;21162;-60
2022/10/21 13:43:59;;;;;;;3.42;2.35;;;;;;;;;;1662105;86;21048;-59
2022/10/21 13:46:30;;;;;;;3.35;2.08;;;;;;;;;;1664127;85;21037;-58
2022/10/21 13:48:59;;;;;;;3.05;1.92;;;;;;;;;;1643383;87;21570;-60
2022/10/21 13:51:30;;;;;;;3.47;1.90;;;;;;;;;;1668655;85;21048;-59
2022/10/21 13:53:57;;;;;;;3.17;2.20;;;;;;;;;;1672442;85;21026;-58
2022/10/21 13:56:24;;;;;;;4.00;2.30;;;;;;;;;;1640782;87;21034;-60
2022/10/21 13:58:51;;;;;;;4.53;2.40;;;;;;;;;;1641782;87;21040;-59
2022/10/21 14:01:20;;;;;;;7.42;2.37;;;;;;;;;;1671030;85;21536;-59
2022/10/21 14:03:47;;;;;;;6.50;2.37;;;;;;;;;;1656487;85;21060;-59
2022/10/21 14:06:22;;;;;;;4.80;2.62;;;;;;;;;;1642821;86;21019;-59
2022/10/21 14:08:48;;;;;;;4.72;2.85;;;;;;;;;;1672619;85;21076;-58
2022/10/21 14:14:19;;;;;;;4.60;3.00;;;;;;;;;;1786232;79;22965;-60
2022/10/21 14:16:53;;;;;;;6.15;3.72;;;;;;;;;;1765644;80;21079;-59
2022/10/21 14:19:20;;;;;;;6.28;3.35;;;;;;;;;;1759836;80;21039;-59
2022/10/21 14:21:49;;;;;;;5.85;3.35;;;;;;;;;;1764288;80;21040;-58
2022/10/21 14:24:24;;;;;;;8.08;4.12;;;;;;;;;;1765778;80;21052;-59
2022/10/21 14:26:50;;;;;;;6.95;3.58;;;;;;;;;;1755537;80;21032;-63
2022/10/21 14:29:16;;;;;;;6.33;3.72;;;;;;;;;;1762754;80;21095;-59
2022/10/21 14:31:43;;;;;;;5.53;3.05;;;;;;;;;;1762046;80;21036;-60
2022/10/21 14:34:25;;;;;;;6.08;3.30;;;;;;;;;;1742359;80;21020;-59
2022/10/21 14:36:58;;;;;;;6.35;3.22;;;;;;;;;;1759196;81;21087;-60
2022/10/21 14:39:24;;;;;;;5.65;2.67;;;;;;;;;;1766759;80;21004;-60
2022/10/21 14:41:51;;;;;;;6.10;3.75;;;;;;;;;;1759659;80;21043;-60
2022/10/21 14:44:18;;;;;;;6.90;3.45;;;;;;;;;;1760015;80;21024;-59
2022/10/21 14:46:46;;;;;;;5.62;3.45;;;;;;;;;;1761146;80;21048;-59
2022/10/21 14:49:31;;;;;;;8.10;3.47;;;;;;;;;;1759654;80;21169;-59
2022/10/21 14:52:00;;;;;;;5.37;3.30;;;;;;;;;;1757822;80;21015;-60
2022/10/21 14:54:34;;;;;;;5.28;3.22;;;;;;;;;;1779352;80;21047;-59
2022/10/21 14:57:00;;;;;;;5.87;3.35;;;;;;;;;;1764274;80;21025;-59
2022/10/21 14:59:31;;;;;;;5.33;3.00;;;;;;;;;;1755037;80;21091;-60